Terminal Aerodrome Forecast
Issued by NWS Greer, SC

Home | Current Version | Previous Version | Text Only | Print | Product List | Glossary On
Versions: 1 2 3 4 5 6 7 8 9 10 11 12 13 14 15 16 17 18 19 20 21 22 23 24 25 26 27 28
867
FTUS42 KGSP 182339
TAFGSP
TAF
KGSP 182339Z 1900/1924 17009KT P6SM BKN080
     FM190600 16010G18KT P6SM VCSH BKN070
     FM190900 16011G19KT P6SM VCSH OVC027
     FM191100 17013G22KT P6SM -SHRA OVC016 PROB30 1914/1918 2SM TSRA
      BR OVC008CB
     FM192000 18012G20KT P6SM -SHRA OVC026
     FM192200 19011G19KT P6SM BKN019 PROB30 1922/1924 4SM -SHRA
      OVC008=

USA.gov is the U.S. government's official web portal to all federal, state and local government web resources and services.